Daonith — 5BXB3 — position and weather

sailwx.info

Track history (hours):
 
Tides and Currents Weather Stations Pressure Air Temp Water Temp Dewpoint Dewpoint Depression Visibility Wind Speed Wind Dir Waves Ship Positions

Daonith

Last reported at 2017-Dec-11 12:33 UTC. Time now 2017-Dec-13 07:28 UTC.
Position N 50°28' W 000°11'.

Length 92 m; draft 5.6 m.

Type: Ship. MMSI: 210632708.

Date/timePositionNaut miles runAvg speedWind from/ knotsBaromVisibWave heightAir tempDewpointWater temp
2017-Dec-11 12:33N 50°28' W 000°11'110.3
2017-Dec-11 12:30N 50°28' W 000°10'510.5
2017-Dec-11 12:00N 50°30' W 000°02'611.1
2017-Dec-11 11:30N 50°31' E 000°07'611.5
2017-Dec-11 11:00N 50°33' E 000°15'611.8
2017-Dec-11 10:30N 50°34' E 000°24'612.2
2017-Dec-11 10:00N 50°37' E 000°33'612.5
2017-Dec-11 09:30N 50°40' E 000°41'612.2
2017-Dec-11 09:00N 50°44' E 000°49'612.2
2017-Dec-11 08:30N 50°48' E 000°56'2011.2
2017-Dec-11 06:44N 51°01' E 001°20'210.3
2017-Dec-11 06:30N 51°02' E 001°23'510.5
2017-Dec-11 06:00N 51°06' E 001°30'510.6
2017-Dec-11 05:30N 51°09' E 001°36'510.7
2017-Dec-11 05:00N 51°12' E 001°43'611.1
2017-Dec-11 04:31N 51°17' E 001°48'611.5
2017-Dec-11 04:00N 51°22' E 001°53'612.2
2017-Dec-11 03:30N 51°27' E 001°59'612.5
2017-Dec-11 03:00N 51°31' E 002°05'712.8
2017-Dec-11 02:27N 51°37' E 002°13'1012.8
2017-Dec-11 01:41N 51°44' E 002°23'53 9.9
2017-Dec-10 20:18N 52°03' E 003°43'3 8.5
2017-Dec-10 19:58N 52°03' E 003°48'4 8.2
2017-Dec-10 19:30N 52°03' E 003°54'3 6.4
2017-Dec-10 19:00N 52°01' E 003°59'4 8.2
2017-Dec-10 18:30N 51°59' E 004°05'4 8.3
2017-Dec-10 18:00N 51°57' E 004°10'4 8.4
2017-Dec-10 17:31N 51°54' E 004°16'2 0.1
2017-Dec-10 06:50N 51°53' E 004°17'0 0.0
2017-Dec-09 16:53N 51°53' E 004°17'0 1.0
2017-Dec-09 16:30N 51°53' E 004°18'3 5.3
2017-Dec-09 16:00N 51°55' E 004°14'5 9.8
2017-Dec-09 15:30N 51°58' E 004°08'4 8.8
2017-Dec-09 15:00N 51°60' E 004°02'4 8.8
2017-Dec-09 14:30N 51°59' E 003°55'510.1
2017-Dec-09 14:00N 51°60' E 003°46'4 8.8
2017-Dec-09 13:30N 52°03' E 003°41'3 6.4
2017-Dec-09 12:59N 52°05' E 003°37'28 0.7
2017-Dec-07 22:28N 51°38' E 003°21'5 8.1
2017-Dec-07 21:50N 51°33' E 003°25'3 8.4
2017-Dec-07 21:30N 51°31' E 003°27'510.2
2017-Dec-07 21:00N 51°27' E 003°32'3 6.6
2017-Dec-07 20:30N 51°26' E 003°37'511.1
2017-Dec-07 20:00N 51°23' E 003°44'713.1
2017-Dec-07 19:30N 51°22' E 003°54'611.8
2017-Dec-07 19:00N 51°26' E 004°01'510.9
2017-Dec-07 18:30N 51°22' E 004°07'4 7.7
2017-Dec-07 18:01N 51°22' E 004°13'3 5.3
2017-Dec-07 17:30N 51°21' E 004°17'0 0.0
2017-Dec-07 17:00N 51°21' E 004°17'0 0.0
2017-Dec-07 16:31N 51°21' E 004°17'1 1.2
2017-Dec-07 16:00N 51°20' E 004°18'2 3.1
2017-Dec-07 15:31N 51°19' E 004°18'  
2017-Dec-04 05:47N 47°37' W 006°33'  
Track history (hours):
 
Tides and Currents Weather Stations Pressure Air Temp Water Temp Dewpoint Dewpoint Depression Visibility Wind Speed Wind Dir Waves Ship Positions

Daonith

Last reported at 2017-Dec-11 12:33 UTC. Time now 2017-Dec-13 07:28 UTC.
Position N 50°28' W 000°11'.

Length 92 m; draft 5.6 m.

Type: Ship. MMSI: 210632708.

Date/timePositionNaut miles runAvg speedWind from/ knotsBaromVisibWave heightAir tempDewpointWater temp
2017-Dec-11 12:33N 50°28' W 000°11'110.3
2017-Dec-11 12:30N 50°28' W 000°10'510.5
2017-Dec-11 12:00N 50°30' W 000°02'611.1
2017-Dec-11 11:30N 50°31' E 000°07'611.5
2017-Dec-11 11:00N 50°33' E 000°15'611.8
2017-Dec-11 10:30N 50°34' E 000°24'612.2
2017-Dec-11 10:00N 50°37' E 000°33'612.5
2017-Dec-11 09:30N 50°40' E 000°41'612.2
2017-Dec-11 09:00N 50°44' E 000°49'612.2
2017-Dec-11 08:30N 50°48' E 000°56'2011.2
2017-Dec-11 06:44N 51°01' E 001°20'210.3
2017-Dec-11 06:30N 51°02' E 001°23'510.5
2017-Dec-11 06:00N 51°06' E 001°30'510.6
2017-Dec-11 05:30N 51°09' E 001°36'510.7
2017-Dec-11 05:00N 51°12' E 001°43'611.1
2017-Dec-11 04:31N 51°17' E 001°48'611.5
2017-Dec-11 04:00N 51°22' E 001°53'612.2
2017-Dec-11 03:30N 51°27' E 001°59'612.5
2017-Dec-11 03:00N 51°31' E 002°05'712.8
2017-Dec-11 02:27N 51°37' E 002°13'1012.8
2017-Dec-11 01:41N 51°44' E 002°23'53 9.9
2017-Dec-10 20:18N 52°03' E 003°43'3 8.5
2017-Dec-10 19:58N 52°03' E 003°48'4 8.2
2017-Dec-10 19:30N 52°03' E 003°54'3 6.4
2017-Dec-10 19:00N 52°01' E 003°59'4 8.2
2017-Dec-10 18:30N 51°59' E 004°05'4 8.3
2017-Dec-10 18:00N 51°57' E 004°10'4 8.4
2017-Dec-10 17:31N 51°54' E 004°16'2 0.1
2017-Dec-10 06:50N 51°53' E 004°17'0 0.0
2017-Dec-09 16:53N 51°53' E 004°17'0 1.0
2017-Dec-09 16:30N 51°53' E 004°18'3 5.3
2017-Dec-09 16:00N 51°55' E 004°14'5 9.8
2017-Dec-09 15:30N 51°58' E 004°08'4 8.8
2017-Dec-09 15:00N 51°60' E 004°02'4 8.8
2017-Dec-09 14:30N 51°59' E 003°55'510.1
2017-Dec-09 14:00N 51°60' E 003°46'4 8.8
2017-Dec-09 13:30N 52°03' E 003°41'3 6.4
2017-Dec-09 12:59N 52°05' E 003°37'28 0.7
2017-Dec-07 22:28N 51°38' E 003°21'5 8.1
2017-Dec-07 21:50N 51°33' E 003°25'3 8.4
2017-Dec-07 21:30N 51°31' E 003°27'510.2
2017-Dec-07 21:00N 51°27' E 003°32'3 6.6
2017-Dec-07 20:30N 51°26' E 003°37'511.1
2017-Dec-07 20:00N 51°23' E 003°44'713.1
2017-Dec-07 19:30N 51°22' E 003°54'611.8
2017-Dec-07 19:00N 51°26' E 004°01'510.9
2017-Dec-07 18:30N 51°22' E 004°07'4 7.7
2017-Dec-07 18:01N 51°22' E 004°13'3 5.3
2017-Dec-07 17:30N 51°21' E 004°17'0 0.0
2017-Dec-07 17:00N 51°21' E 004°17'0 0.0
2017-Dec-07 16:31N 51°21' E 004°17'1 1.2
2017-Dec-07 16:00N 51°20' E 004°18'2 3.1
2017-Dec-07 15:31N 51°19' E 004°18'  
2017-Dec-04 05:47N 47°37' W 006°33'  

Dump ship's entire track history